Time;durP1;ratioP1;P1;durP2;ratioP2;P2;SDS_P1;SDS_P2;PMS_P1;PMS_P2;Temp;Humidity;BMP_temperature;BMP_pressure;BME280_temperature;BME280_humidity;BME280_pressure;Samples;Min_cycle;Max_cycle;Signal;HPM_P1;HPM_P2
2022/08/25 00:01:26;;;;;;;1.00;0.90;;;27.80;49.70;;;;;;5030294;28;20433;-53
2022/08/25 00:03:52;;;;;;;1.52;0.90;;;27.80;49.50;;;;;;5024006;28;20074;-56
2022/08/25 00:06:19;;;;;;;1.58;1.10;;;27.80;49.40;;;;;;5029511;28;20045;-57
2022/08/25 00:08:45;;;;;;;1.95;1.00;;;27.80;49.30;;;;;;5029191;28;20029;-52
2022/08/25 00:11:15;;;;;;;0.90;0.80;;;27.80;49.40;;;;;;5025242;28;20103;-53
2022/08/25 00:13:44;;;;;;;1.40;0.90;;;27.80;49.20;;;;;;5020358;28;20029;-53
2022/08/25 00:16:12;;;;;;;1.58;1.00;;;27.80;49.20;;;;;;5026391;28;20067;-55
2022/08/25 00:18:40;;;;;;;1.33;1.00;;;27.80;49.20;;;;;;5025866;28;20441;-52
2022/08/25 00:21:07;;;;;;;8.75;1.08;;;27.80;49.00;;;;;;5027201;28;20037;-55
2022/08/25 00:23:33;;;;;;;1.65;1.10;;;27.80;48.90;;;;;;5029862;28;20029;-56
2022/08/25 00:26:00;;;;;;;1.70;1.08;;;27.80;48.80;;;;;;5028321;28;20036;-56
2022/08/25 00:28:29;;;;;;;1.30;1.00;;;27.80;48.70;;;;;;5027409;28;20029;-53
2022/08/25 00:30:55;;;;;;;4.57;1.30;;;27.80;48.60;;;;;;5029012;28;20037;-49
2022/08/25 00:33:21;;;;;;;1.60;1.10;;;27.80;48.50;;;;;;5027006;28;20040;-52
2022/08/25 00:35:47;;;;;;;1.80;1.00;;;27.80;48.60;;;;;;5022700;28;20037;-55
2022/08/25 00:38:13;;;;;;;1.67;1.10;;;27.80;48.50;;;;;;5026543;28;20083;-51
2022/08/25 00:40:41;;;;;;;1.42;1.10;;;27.80;48.40;;;;;;5028461;28;20041;-53
2022/08/25 00:43:07;;;;;;;1.30;1.15;;;27.80;48.30;;;;;;5027590;28;20111;-54
2022/08/25 00:45:33;;;;;;;1.67;1.20;;;27.80;48.30;;;;;;5024665;28;20112;-52
2022/08/25 00:48:00;;;;;;;1.92;1.08;;;27.80;48.30;;;;;;5023563;28;20032;-52
2022/08/25 00:50:29;;;;;;;2.03;1.02;;;27.80;48.20;;;;;;5027583;28;20395;-53
2022/08/25 00:52:58;;;;;;;3.90;1.17;;;27.80;48.20;;;;;;5026432;28;20029;-54
2022/08/25 00:55:29;;;;;;;2.17;1.30;;;27.80;48.20;;;;;;5026673;28;20116;-57
2022/08/25 00:58:14;;;;;;;2.35;1.20;;;27.80;48.10;;;;;;5023210;28;20044;-53
2022/08/25 01:00:44;;;;;;;2.25;1.20;;;27.80;48.10;;;;;;5026132;28;20029;-55
2022/08/25 01:03:10;;;;;;;1.10;1.00;;;27.70;48.00;;;;;;5025184;28;20165;-53
2022/08/25 01:05:37;;;;;;;3.03;1.17;;;27.70;47.90;;;;;;5029122;28;20037;-54
2022/08/25 01:08:05;;;;;;;1.58;1.30;;;27.70;47.90;;;;;;5024206;28;20025;-56
2022/08/25 01:10:34;;;;;;;1.70;1.20;;;27.70;47.90;;;;;;5027505;28;20049;-50
2022/08/25 01:13:07;;;;;;;1.45;0.95;;;27.70;47.80;;;;;;5028130;28;20017;-54
2022/08/25 01:15:34;;;;;;;1.83;1.38;;;27.70;47.80;;;;;;5025239;28;20049;-56
2022/08/25 01:18:01;;;;;;;3.47;1.00;;;27.70;48.50;;;;;;5026556;28;20034;-54
2022/08/25 01:20:29;;;;;;;2.05;1.23;;;27.70;47.80;;;;;;5024148;28;20029;-55
2022/08/25 01:22:56;;;;;;;1.45;1.02;;;27.70;47.80;;;;;;5026920;28;20468;-52
2022/08/25 01:25:48;;;;;;;1.98;1.15;;;27.70;47.70;;;;;;5028236;28;20037;-54
2022/08/25 01:28:14;;;;;;;1.50;1.15;;;27.70;47.60;;;;;;5025067;28;20041;-54
2022/08/25 01:30:40;;;;;;;1.67;1.20;;;27.70;47.60;;;;;;5029110;28;20029;-58
2022/08/25 01:33:08;;;;;;;2.10;0.90;;;27.70;47.50;;;;;;5025623;28;20044;-54
2022/08/25 01:35:35;;;;;;;1.20;0.95;;;27.70;47.50;;;;;;5024965;28;20061;-54
2022/08/25 01:38:03;;;;;;;2.42;1.13;;;27.70;47.50;;;;;;5023468;28;20429;-56
2022/08/25 01:40:30;;;;;;;1.88;1.17;;;27.70;47.50;;;;;;5029258;28;20249;-52
2022/08/25 01:43:01;;;;;;;3.25;1.33;;;27.70;47.40;;;;;;5028194;28;20025;-55
2022/08/25 01:45:27;;;;;;;1.88;1.30;;;27.70;47.30;;;;;;5030198;28;20033;-54
2022/08/25 01:47:53;;;;;;;3.10;1.30;;;27.70;47.30;;;;;;5031823;28;20366;-52
2022/08/25 01:50:19;;;;;;;1.10;0.90;;;27.70;47.20;;;;;;5031212;28;20025;-51
2022/08/25 01:53:03;;;;;;;1.30;1.10;;;27.70;47.20;;;;;;5031775;28;20076;-51
2022/08/25 01:55:29;;;;;;;1.95;1.48;;;27.60;47.10;;;;;;5029567;28;20049;-53
2022/08/25 01:57:57;;;;;;;1.60;1.30;;;27.60;47.10;;;;;;5030631;28;20124;-55
2022/08/25 02:00:23;;;;;;;1.83;1.40;;;27.60;47.20;;;;;;5030627;28;20406;-56
2022/08/25 02:02:49;;;;;;;1.90;1.20;;;27.60;47.00;;;;;;5032386;28;20049;-54
2022/08/25 02:05:15;;;;;;;1.92;1.10;;;27.60;46.90;;;;;;5030439;28;20072;-54
2022/08/25 02:07:42;;;;;;;2.60;1.33;;;27.60;46.90;;;;;;5026630;28;20140;-55
2022/08/25 02:10:10;;;;;;;1.60;1.08;;;27.60;46.90;;;;;;5029508;28;20025;-52
2022/08/25 02:12:36;;;;;;;1.40;1.15;;;27.60;46.80;;;;;;5028847;28;20469;-55
2022/08/25 02:15:06;;;;;;;1.95;1.20;;;27.60;46.70;;;;;;5026748;28;20128;-56
2022/08/25 02:17:35;;;;;;;2.22;1.20;;;27.60;46.60;;;;;;5033243;28;20037;-52
2022/08/25 02:20:03;;;;;;;1.42;1.25;;;27.60;46.60;;;;;;5031143;28;20033;-53
2022/08/25 02:22:28;;;;;;;2.15;1.38;;;27.60;46.50;;;;;;5030852;28;20033;-54
2022/08/25 02:24:54;;;;;;;3.70;1.30;;;27.60;46.50;;;;;;5028903;28;20560;-55
2022/08/25 02:27:20;;;;;;;2.33;1.20;;;27.60;46.40;;;;;;5030612;28;20094;-51
2022/08/25 02:29:46;;;;;;;2.08;1.25;;;27.60;46.40;;;;;;5028241;28;20160;-56
2022/08/25 02:32:12;;;;;;;2.17;1.23;;;27.60;46.30;;;;;;5031883;28;20559;-53
2022/08/25 02:34:40;;;;;;;1.77;1.25;;;27.60;46.30;;;;;;5028962;28;20029;-52
2022/08/25 02:37:07;;;;;;;1.58;1.10;;;27.60;46.30;;;;;;5031388;28;20044;-55
2022/08/25 02:39:32;;;;;;;2.33;1.23;;;27.60;46.30;;;;;;5030109;28;20044;-53
2022/08/25 02:41:58;;;;;;;3.33;1.63;;;27.60;46.30;;;;;;5028764;28;21825;-53
2022/08/25 02:44:24;;;;;;;2.60;1.20;;;27.60;46.30;;;;;;5026110;28;20040;-55
2022/08/25 02:46:50;;;;;;;2.25;1.13;;;27.50;46.10;;;;;;5031796;28;20025;-55
2022/08/25 02:49:17;;;;;;;2.55;1.30;;;27.60;46.10;;;;;;5031641;28;20480;-54
2022/08/25 02:51:43;;;;;;;1.75;1.10;;;27.50;46.00;;;;;;5030620;28;20416;-48
2022/08/25 02:54:09;;;;;;;1.73;1.20;;;27.50;45.80;;;;;;5027948;28;20029;-55
2022/08/25 02:56:35;;;;;;;1.33;1.08;;;27.50;45.70;;;;;;5024989;28;20041;-56
2022/08/25 02:59:01;;;;;;;2.08;1.23;;;27.60;45.80;;;;;;5029584;28;20112;-56
2022/08/25 03:01:28;;;;;;;1.85;1.23;;;27.50;45.70;;;;;;5031274;28;20029;-55
2022/08/25 03:03:54;;;;;;;3.75;1.20;;;27.50;45.70;;;;;;5029756;28;20041;-55
2022/08/25 03:06:22;;;;;;;1.23;1.10;;;27.50;45.60;;;;;;5031408;28;20100;-55
2022/08/25 03:08:48;;;;;;;1.20;1.10;;;27.50;45.50;;;;;;5030779;28;20025;-54
2022/08/25 03:11:14;;;;;;;2.47;1.30;;;27.50;45.40;;;;;;5029357;28;20088;-50
2022/08/25 03:13:40;;;;;;;2.95;0.90;;;27.50;45.50;;;;;;5028293;28;20035;-54
2022/08/25 03:16:07;;;;;;;1.42;1.30;;;27.50;45.50;;;;;;5028152;28;20134;-53
2022/08/25 03:18:33;;;;;;;2.42;1.38;;;27.50;45.40;;;;;;5026582;28;20365;-49
2022/08/25 03:20:59;;;;;;;3.17;1.33;;;27.50;45.40;;;;;;5029353;28;20047;-52
2022/08/25 03:23:25;;;;;;;2.15;1.23;;;27.50;45.40;;;;;;5027548;28;20041;-55
2022/08/25 03:28:38;;;;;;;1.95;1.40;;;27.50;45.30;;;;;;5029309;28;20031;-50
2022/08/25 03:31:04;;;;;;;2.53;1.52;;;27.50;45.30;;;;;;5029807;28;20404;-54
2022/08/25 03:33:30;;;;;;;1.45;1.15;;;27.50;45.30;;;;;;5028828;28;20044;-53
2022/08/25 03:35:57;;;;;;;9.90;1.67;;;27.50;45.30;;;;;;5031131;28;20099;-54
2022/08/25 03:38:24;;;;;;;1.85;1.30;;;27.50;45.30;;;;;;5027900;28;20451;-54
2022/08/25 03:40:50;;;;;;;1.92;1.48;;;27.50;45.20;;;;;;5030033;28;20392;-54
2022/08/25 03:43:17;;;;;;;1.95;1.40;;;27.40;45.10;;;;;;5028278;28;20029;-54
2022/08/25 03:45:44;;;;;;;1.67;1.42;;;27.40;45.10;;;;;;5029844;28;20029;-53
2022/08/25 03:48:11;;;;;;;3.25;1.40;;;27.40;45.00;;;;;;5026687;28;20437;-56
2022/08/25 03:50:44;;;;;;;1.27;1.17;;;27.40;45.00;;;;;;5029991;28;20029;-54
2022/08/25 03:53:10;;;;;;;2.05;1.23;;;27.40;45.00;;;;;;5027672;28;20026;-53
2022/08/25 03:55:36;;;;;;;3.92;1.65;;;27.40;45.10;;;;;;5026520;28;20025;-54
2022/08/25 03:58:02;;;;;;;2.70;1.60;;;27.40;45.00;;;;;;5029172;28;20033;-55
2022/08/25 04:00:28;;;;;;;1.95;1.40;;;27.40;45.00;;;;;;5028372;28;20029;-54
2022/08/25 04:02:53;;;;;;;2.30;1.48;;;27.40;45.00;;;;;;5026465;28;20106;-56
2022/08/25 04:05:19;;;;;;;2.65;1.20;;;27.40;45.00;;;;;;5030071;28;20203;-52
2022/08/25 04:07:45;;;;;;;1.65;1.10;;;27.30;44.90;;;;;;5026821;28;20067;-55
2022/08/25 04:10:11;;;;;;;3.45;1.50;;;27.40;45.00;;;;;;5030285;28;20105;-55
2022/08/25 04:12:37;;;;;;;3.03;1.60;;;27.30;44.80;;;;;;5029479;28;20030;-52
2022/08/25 04:15:06;;;;;;;1.77;1.35;;;27.40;45.00;;;;;;5029356;28;20039;-53
2022/08/25 04:17:32;;;;;;;1.65;1.40;;;27.40;44.90;;;;;;5025237;28;20037;-55
2022/08/25 04:19:58;;;;;;;2.28;1.73;;;27.30;44.80;;;;;;5022911;28;20029;-55
2022/08/25 04:22:24;;;;;;;2.00;1.20;;;27.30;44.90;;;;;;5026299;28;20034;-51
2022/08/25 04:24:50;;;;;;;2.30;1.40;;;27.40;45.00;;;;;;5028551;28;20033;-54
2022/08/25 04:27:16;;;;;;;3.25;1.20;;;27.30;44.80;;;;;;5026188;28;20017;-55
2022/08/25 04:29:41;;;;;;;2.33;1.20;;;27.30;44.80;;;;;;5028737;28;20029;-52
2022/08/25 04:32:07;;;;;;;1.25;1.10;;;27.30;44.80;;;;;;5029891;28;20029;-50
2022/08/25 04:34:33;;;;;;;2.40;1.42;;;27.30;44.80;;;;;;5027842;28;20577;-54
2022/08/25 04:37:01;;;;;;;2.17;1.23;;;27.30;44.80;;;;;;5025078;28;20068;-56
2022/08/25 04:39:27;;;;;;;3.35;1.17;;;27.30;44.80;;;;;;5025440;28;20116;-50
2022/08/25 04:41:54;;;;;;;1.40;1.30;;;27.30;44.80;;;;;;5029666;28;20091;-51
2022/08/25 04:44:20;;;;;;;2.75;1.80;;;27.30;44.80;;;;;;5027895;28;20071;-57
2022/08/25 04:46:45;;;;;;;3.58;1.40;;;27.30;44.90;;;;;;5029238;28;20048;-56
2022/08/25 04:49:11;;;;;;;3.28;1.52;;;27.30;44.80;;;;;;5024502;28;20044;-52
2022/08/25 04:51:40;;;;;;;2.75;1.40;;;27.30;44.80;;;;;;5025945;28;20080;-51
2022/08/25 04:54:09;;;;;;;1.40;1.02;;;27.30;44.80;;;;;;5026362;28;20129;-51
2022/08/25 04:56:36;;;;;;;1.48;1.38;;;27.30;44.80;;;;;;5021104;28;20033;-55
2022/08/25 04:59:05;;;;;;;4.32;1.55;;;27.30;44.80;;;;;;5029451;28;20376;-55
2022/08/25 05:01:31;;;;;;;1.90;1.33;;;27.30;44.80;;;;;;5029554;28;20021;-56
2022/08/25 05:04:00;;;;;;;2.97;1.30;;;27.30;44.80;;;;;;5028966;28;20107;-49
2022/08/25 05:06:27;;;;;;;1.48;1.30;;;27.30;44.80;;;;;;5025772;28;20419;-54
2022/08/25 05:08:54;;;;;;;2.85;1.83;;;27.30;44.80;;;;;;5027759;28;20325;-56
2022/08/25 05:11:21;;;;;;;2.65;1.70;;;27.30;44.80;;;;;;5029680;28;20033;-53
2022/08/25 05:13:49;;;;;;;2.20;1.48;;;27.30;45.40;;;;;;5026153;28;20453;-49
2022/08/25 05:16:16;;;;;;;1.95;1.20;;;27.30;44.80;;;;;;5027099;28;20042;-54
2022/08/25 05:18:42;;;;;;;2.58;1.52;;;27.30;44.80;;;;;;5024155;28;20040;-55
2022/08/25 05:21:15;;;;;;;2.45;1.50;;;27.30;44.70;;;;;;5026814;28;20051;-54
2022/08/25 05:23:42;;;;;;;2.03;1.30;;;27.30;44.70;;;;;;5028388;28;20022;-56
2022/08/25 05:26:12;;;;;;;1.63;1.30;;;27.30;44.80;;;;;;5027802;28;20044;-58
2022/08/25 05:28:40;;;;;;;2.90;1.60;;;27.30;44.70;;;;;;5026254;28;20064;-51
2022/08/25 05:31:09;;;;;;;2.70;1.40;;;27.30;44.70;;;;;;5029238;28;20021;-56
2022/08/25 05:33:41;;;;;;;3.17;1.45;;;27.30;44.70;;;;;;5022897;28;20034;-51
2022/08/25 05:36:09;;;;;;;2.30;1.40;;;27.20;44.60;;;;;;5021534;28;20029;-59
2022/08/25 05:38:36;;;;;;;3.17;1.67;;;27.30;44.70;;;;;;5027686;28;20060;-55
2022/08/25 05:41:06;;;;;;;3.25;1.70;;;27.30;44.70;;;;;;5024111;28;20025;-51
2022/08/25 05:43:32;;;;;;;2.67;1.33;;;27.30;44.70;;;;;;5025719;28;20061;-54
2022/08/25 05:45:58;;;;;;;3.42;1.63;;;27.30;44.80;;;;;;5026922;28;20021;-55
2022/08/25 05:48:26;;;;;;;4.05;1.80;;;27.20;44.70;;;;;;5027107;28;20029;-56
2022/08/25 05:50:53;;;;;;;3.97;1.80;;;27.30;44.80;;;;;;5026634;28;20095;-57
2022/08/25 05:53:20;;;;;;;5.18;1.90;;;27.30;44.80;;;;;;5025264;28;20104;-53
2022/08/25 05:55:46;;;;;;;5.93;2.10;;;27.20;44.70;;;;;;5025037;28;20476;-55
2022/08/25 05:58:24;;;;;;;4.63;2.30;;;27.20;44.70;;;;;;5025271;28;20073;-50
2022/08/25 06:00:50;;;;;;;3.60;1.83;;;27.20;44.70;;;;;;5025132;28;20159;-52
2022/08/25 06:03:16;;;;;;;3.60;1.63;;;27.20;44.60;;;;;;5026669;28;20057;-52
2022/08/25 06:05:42;;;;;;;4.05;2.30;;;27.20;44.60;;;;;;5027895;28;20064;-52
2022/08/25 06:08:08;;;;;;;3.75;1.92;;;27.20;44.60;;;;;;5026163;28;20548;-50
2022/08/25 06:10:35;;;;;;;5.40;2.20;;;27.20;44.60;;;;;;5022181;28;20323;-55
2022/08/25 06:13:01;;;;;;;4.53;2.20;;;27.20;44.60;;;;;;5014576;28;20030;-56
2022/08/25 06:15:30;;;;;;;4.75;2.03;;;27.20;44.70;;;;;;5016272;28;20091;-52
2022/08/25 06:17:57;;;;;;;2.53;1.35;;;27.20;44.70;;;;;;5023204;28;20479;-55
2022/08/25 06:20:27;;;;;;;4.88;2.15;;;27.20;44.70;;;;;;5024901;28;20117;-56
2022/08/25 06:22:54;;;;;;;7.60;1.92;;;27.20;44.80;;;;;;5019991;28;20037;-50
2022/08/25 06:25:26;;;;;;;3.05;1.90;;;27.20;44.80;;;;;;5021809;28;20441;-55
2022/08/25 06:27:54;;;;;;;4.35;2.28;;;27.20;44.80;;;;;;5023545;28;20025;-59
2022/08/25 06:30:22;;;;;;;5.25;2.28;;;27.10;44.80;;;;;;5031531;28;20025;-48
2022/08/25 06:32:48;;;;;;;3.95;2.20;;;27.20;45.40;;;;;;5028636;28;20025;-53
2022/08/25 06:35:19;;;;;;;5.32;1.90;;;27.20;44.80;;;;;;5029201;28;20036;-52
2022/08/25 06:37:46;;;;;;;4.47;2.08;;;27.20;44.80;;;;;;5034323;28;20049;-56
2022/08/25 06:40:12;;;;;;;4.13;2.10;;;27.20;44.90;;;;;;5036512;28;20056;-48
2022/08/25 06:42:38;;;;;;;3.08;1.98;;;27.10;44.80;;;;;;5036153;28;20036;-54
2022/08/25 06:45:06;;;;;;;2.47;1.83;;;27.20;44.90;;;;;;5035597;28;20040;-50
2022/08/25 06:47:33;;;;;;;2.97;1.70;;;27.20;44.90;;;;;;5035482;28;20053;-53
2022/08/25 06:49:58;;;;;;;3.40;1.98;;;27.10;44.80;;;;;;5025764;28;20037;-55
2022/08/25 06:52:24;;;;;;;4.35;2.08;;;27.20;44.90;;;;;;5029457;28;20040;-52
2022/08/25 06:54:54;;;;;;;3.67;1.90;;;27.10;44.80;;;;;;5024382;28;20116;-55
2022/08/25 06:57:19;;;;;;;2.42;1.55;;;27.20;44.80;;;;;;5024027;28;20116;-55
2022/08/25 06:59:45;;;;;;;4.75;2.00;;;27.20;44.90;;;;;;5028042;28;20498;-55
2022/08/25 07:02:11;;;;;;;5.25;1.80;;;27.10;44.80;;;;;;5018496;28;20117;-56
2022/08/25 07:04:37;;;;;;;5.18;1.90;;;27.10;44.80;;;;;;5031079;28;20121;-51
2022/08/25 07:07:03;;;;;;;2.60;1.77;;;27.10;44.80;;;;;;5017738;28;20061;-55
2022/08/25 07:09:29;;;;;;;3.33;1.75;;;27.10;44.80;;;;;;5020161;28;20029;-53
2022/08/25 07:11:55;;;;;;;2.60;1.38;;;27.10;44.80;;;;;;5017253;28;20117;-56
2022/08/25 07:14:22;;;;;;;2.60;1.58;;;27.20;44.80;;;;;;5017410;28;20044;-53
2022/08/25 07:16:48;;;;;;;4.05;1.70;;;27.10;44.70;;;;;;5029949;28;20049;-53
2022/08/25 07:19:14;;;;;;;3.35;1.55;;;27.20;44.80;;;;;;5035460;28;20345;-57
2022/08/25 07:21:41;;;;;;;2.50;1.50;;;27.20;45.30;;;;;;5018705;28;20100;-53
2022/08/25 07:24:09;;;;;;;2.63;1.45;;;27.20;44.70;;;;;;5016959;28;20065;-55
2022/08/25 07:26:37;;;;;;;2.50;1.60;;;27.20;44.70;;;;;;5026822;28;20034;-50
2022/08/25 07:29:18;;;;;;;4.57;1.85;;;27.30;44.80;;;;;;5022400;28;20030;-53
2022/08/25 07:31:45;;;;;;;1.60;1.48;;;27.20;44.70;;;;;;5026788;28;20037;-52
2022/08/25 07:36:56;;;;;;;2.47;1.65;;;27.20;44.70;;;;;;5023480;28;20041;-51
2022/08/25 07:39:23;;;;;;;2.50;1.50;;;27.20;44.70;;;;;;5026768;28;20453;-52
2022/08/25 07:41:49;;;;;;;1.58;1.23;;;27.30;44.80;;;;;;5026844;28;20017;-55
2022/08/25 07:44:15;;;;;;;1.70;1.50;;;27.30;44.80;;;;;;5026895;28;20057;-53
2022/08/25 07:46:41;;;;;;;3.53;1.52;;;27.30;44.80;;;;;;5025376;28;20441;-53
2022/08/25 07:49:07;;;;;;;2.35;1.75;;;27.30;44.80;;;;;;5016581;28;20029;-56
2022/08/25 07:51:33;;;;;;;2.45;1.23;;;27.20;44.70;;;;;;5016740;28;20056;-48
2022/08/25 07:53:59;;;;;;;1.80;1.50;;;27.30;44.80;;;;;;5016447;28;20065;-50
2022/08/25 07:56:25;;;;;;;3.10;1.65;;;27.30;44.80;;;;;;5020011;28;20460;-53
2022/08/25 07:58:51;;;;;;;1.98;1.40;;;27.30;44.80;;;;;;5017093;28;20034;-54
2022/08/25 08:01:19;;;;;;;1.88;1.45;;;27.30;44.90;;;;;;5033999;28;20433;-56
2022/08/25 08:03:44;;;;;;;1.60;1.27;;;27.30;45.10;;;;;;5036189;28;20076;-52
2022/08/25 08:06:13;;;;;;;2.55;1.40;;;27.30;45.20;;;;;;5036362;28;20077;-56
2022/08/25 08:08:44;;;;;;;3.10;1.70;;;27.30;45.30;;;;;;5036335;28;20037;-51
2022/08/25 08:11:27;;;;;;;1.90;1.30;;;27.30;45.40;;;;;;5016660;28;20121;-55
2022/08/25 08:13:55;;;;;;;2.40;1.60;;;27.30;45.50;;;;;;5017624;28;20041;-53
2022/08/25 08:16:23;;;;;;;2.72;1.55;;;27.30;45.60;;;;;;5016240;28;20077;-53
2022/08/25 08:18:49;;;;;;;2.92;1.60;;;27.30;45.60;;;;;;5016522;28;20053;-53
2022/08/25 08:21:20;;;;;;;1.85;1.30;;;27.30;45.70;;;;;;5023483;28;20038;-55
2022/08/25 08:23:47;;;;;;;1.75;1.40;;;27.30;45.80;;;;;;5020684;28;20044;-56
2022/08/25 08:26:13;;;;;;;1.75;1.20;;;27.30;45.80;;;;;;5036439;28;20124;-60
2022/08/25 08:28:39;;;;;;;1.85;1.40;;;27.30;45.80;;;;;;5032999;28;20040;-51
2022/08/25 08:31:05;;;;;;;2.38;1.50;;;27.30;45.90;;;;;;5015966;28;20037;-51
2022/08/25 08:33:33;;;;;;;2.15;1.50;;;27.30;45.90;;;;;;5016635;28;20426;-53
2022/08/25 08:36:05;;;;;;;2.10;1.55;;;27.30;45.90;;;;;;5018486;28;20072;-54
2022/08/25 08:38:32;;;;;;;2.08;1.30;;;27.30;46.00;;;;;;5016389;28;20038;-53
2022/08/25 08:44:17;;;;;;;1.98;1.20;;;27.30;45.90;;;;;;5036049;28;20041;-53
2022/08/25 08:47:01;;;;;;;3.63;1.60;;;27.30;46.00;;;;;;5035729;28;20103;-55
2022/08/25 08:49:45;;;;;;;2.33;1.40;;;27.30;46.10;;;;;;5026289;28;20051;-55
2022/08/25 08:52:16;;;;;;;1.88;1.33;;;27.30;46.20;;;;;;5029538;28;20026;-56
2022/08/25 08:54:45;;;;;;;2.95;1.70;;;27.30;46.20;;;;;;5035273;28;20064;-54
2022/08/25 08:57:17;;;;;;;6.45;1.60;;;27.30;46.20;;;;;;5035317;28;20081;-53
2022/08/25 08:59:53;;;;;;;1.70;1.38;;;27.30;46.20;;;;;;5024673;28;20462;-51
2022/08/25 09:02:34;;;;;;;1.65;1.17;;;27.30;46.20;;;;;;5032376;28;20064;-56
2022/08/25 09:05:09;;;;;;;1.52;1.35;;;27.30;46.20;;;;;;5035495;28;20033;-53
2022/08/25 09:07:59;;;;;;;2.40;1.50;;;27.30;46.10;;;;;;5034834;28;20460;-60
2022/08/25 09:10:34;;;;;;;4.88;1.48;;;27.30;46.10;;;;;;5033394;28;20081;-57
2022/08/25 09:13:17;;;;;;;5.55;1.40;;;27.30;46.10;;;;;;5019643;28;20030;-51
2022/08/25 09:19:30;;;;;;;2.42;1.20;;;27.30;46.60;;;;;;5027845;28;20442;-57
2022/08/25 09:22:15;;;;;;;2.15;1.45;;;27.30;46.00;;;;;;4994734;28;20107;-54
2022/08/25 09:25:06;;;;;;;2.67;1.20;;;27.30;45.90;;;;;;5034944;28;20030;-55
2022/08/25 09:28:05;;;;;;;1.98;1.38;;;27.30;45.80;;;;;;5030600;28;20454;-53
2022/08/25 09:30:58;;;;;;;1.45;1.25;;;27.40;45.90;;;;;;5015768;28;20290;-56
2022/08/25 09:33:26;;;;;;;2.55;1.88;;;27.30;45.80;;;;;;5015447;28;20034;-56
2022/08/25 09:35:54;;;;;;;2.00;1.50;;;27.40;45.90;;;;;;5016220;28;20034;-52
2022/08/25 09:38:20;;;;;;;2.30;1.38;;;27.30;45.70;;;;;;5020541;28;20037;-54
2022/08/25 09:40:49;;;;;;;2.40;1.60;;;27.30;45.70;;;;;;5014788;28;20080;-50
2022/08/25 09:43:34;;;;;;;1.67;1.45;;;27.40;45.80;;;;;;5033403;28;20102;-50
2022/08/25 09:46:00;;;;;;;1.75;1.25;;;27.40;45.70;;;;;;5034853;28;20029;-52
2022/08/25 09:48:36;;;;;;;2.83;1.50;;;27.40;45.80;;;;;;5025358;28;20084;-53
2022/08/25 09:51:11;;;;;;;3.08;1.52;;;27.40;45.70;;;;;;5014639;28;20038;-54
2022/08/25 09:53:55;;;;;;;3.28;1.30;;;27.40;45.60;;;;;;5029844;28;20034;-52
2022/08/25 09:56:24;;;;;;;3.92;1.48;;;27.40;45.60;;;;;;5029855;28;20041;-53
2022/08/25 09:58:50;;;;;;;3.25;1.42;;;27.40;45.60;;;;;;5025636;28;20034;-51
2022/08/25 10:01:19;;;;;;;2.28;1.45;;;27.40;45.70;;;;;;5015469;28;20030;-53
2022/08/25 10:04:01;;;;;;;2.75;1.70;;;27.40;45.60;;;;;;5018736;28;20030;-52
2022/08/25 10:06:36;;;;;;;2.05;1.45;;;27.40;45.60;;;;;;5025954;28;20073;-54
2022/08/25 10:09:06;;;;;;;2.25;1.52;;;27.40;45.50;;;;;;5025265;28;20361;-53
2022/08/25 10:11:42;;;;;;;2.25;1.60;;;27.40;45.50;;;;;;5017984;28;20092;-52
2022/08/25 10:14:32;;;;;;;2.15;1.60;;;27.40;45.50;;;;;;5028346;28;20037;-52
2022/08/25 10:17:31;;;;;;;1.88;1.25;;;27.40;45.50;;;;;;5031208;28;20396;-52
2022/08/25 10:20:09;;;;;;;1.80;1.40;;;27.40;45.50;;;;;;4985483;28;20057;-57
2022/08/25 10:22:35;;;;;;;2.00;1.40;;;27.40;45.50;;;;;;5029826;28;20041;-51
2022/08/25 10:25:05;;;;;;;1.80;1.40;;;27.40;45.60;;;;;;5028942;28;20037;-56
2022/08/25 10:27:57;;;;;;;1.30;1.13;;;27.50;45.60;;;;;;5025896;28;20060;-55
2022/08/25 10:30:41;;;;;;;1.40;1.30;;;27.40;45.50;;;;;;5025015;28;20744;-60
2022/08/25 10:33:50;;;;;;;2.50;1.38;;;27.50;45.40;;;;;;5025354;28;20037;-54
2022/08/25 10:36:46;;;;;;;1.67;1.48;;;27.50;45.30;;;;;;5023380;28;20041;-54
2022/08/25 10:39:39;;;;;;;1.42;1.20;;;27.50;45.40;;;;;;5028764;28;20029;-55
2022/08/25 10:42:19;;;;;;;1.95;1.10;;;27.50;45.40;;;;;;5027162;28;20045;-53
2022/08/25 10:47:56;;;;;;;3.78;1.20;;;27.50;45.30;;;;;;5023493;28;20654;-52
2022/08/25 10:50:22;;;;;;;1.50;1.38;;;27.50;45.20;;;;;;5026364;28;20029;-51
2022/08/25 10:53:03;;;;;;;2.53;1.30;;;27.50;45.20;;;;;;5030974;28;20081;-57
2022/08/25 10:55:51;;;;;;;3.75;1.10;;;27.60;45.10;;;;;;5030007;28;20068;-55
2022/08/25 10:58:45;;;;;;;1.52;1.20;;;27.60;45.10;;;;;;5025875;28;20068;-57
2022/08/25 11:01:36;;;;;;;1.60;1.30;;;27.60;45.20;;;;;;5022954;28;20449;-57
2022/08/25 11:04:08;;;;;;;1.40;1.30;;;27.60;45.40;;;;;;5020312;28;20033;-58
2022/08/25 11:06:40;;;;;;;1.67;1.10;;;27.60;45.30;;;;;;5019921;28;20083;-62
2022/08/25 11:09:11;;;;;;;1.38;1.02;;;27.60;45.50;;;;;;5026410;28;20025;-65
2022/08/25 11:12:24;;;;;;;3.58;1.30;;;27.70;45.90;;;;;;5025661;28;20033;-63
2022/08/25 11:15:01;;;;;;;1.60;1.00;;;27.70;46.20;;;;;;4995675;28;20060;-68
2022/08/25 11:17:48;;;;;;;1.25;0.95;;;27.70;46.20;;;;;;5025238;28;20060;-60
2022/08/25 11:20:20;;;;;;;1.17;1.05;;;27.80;46.10;;;;;;5025135;28;20033;-60
2022/08/25 11:23:04;;;;;;;1.20;1.00;;;27.90;45.90;;;;;;5025148;28;20030;-60
2022/08/25 11:25:51;;;;;;;1.65;1.23;;;27.90;45.50;;;;;;5024494;28;20037;-58
2022/08/25 11:28:26;;;;;;;2.25;1.30;;;28.10;45.00;;;;;;5027993;28;20041;-59
2022/08/25 11:30:57;;;;;;;1.30;1.10;;;28.10;44.60;;;;;;5028801;28;20104;-60
2022/08/25 11:33:30;;;;;;;1.20;1.02;;;28.10;44.00;;;;;;5017691;28;20036;-60
2022/08/25 11:36:25;;;;;;;1.42;1.00;;;28.20;43.70;;;;;;5020994;28;20599;-63
2022/08/25 11:38:57;;;;;;;2.25;1.08;;;28.20;43.10;;;;;;5025294;28;20029;-60
2022/08/25 11:41:34;;;;;;;1.60;0.88;;;28.30;43.10;;;;;;5016969;28;20126;-60
2022/08/25 11:44:13;;;;;;;1.15;1.05;;;28.40;42.40;;;;;;5017084;28;20338;-59
2022/08/25 11:46:55;;;;;;;2.35;1.30;;;28.40;41.70;;;;;;5017220;28;20091;-60
2022/08/25 11:49:36;;;;;;;1.48;1.20;;;28.40;41.10;;;;;;5023697;28;20032;-60
2022/08/25 11:52:08;;;;;;;1.10;1.00;;;28.50;40.80;;;;;;5036428;28;20421;-59
2022/08/25 11:54:42;;;;;;;2.75;1.40;;;28.40;40.20;;;;;;5036771;28;20029;-59
2022/08/25 11:57:20;;;;;;;1.13;1.00;;;28.40;39.80;;;;;;5027346;28;20038;-57
2022/08/25 11:59:54;;;;;;;1.20;1.00;;;28.50;39.50;;;;;;5020812;28;20445;-61
2022/08/25 12:02:50;;;;;;;1.40;1.10;;;28.40;39.20;;;;;;5022826;28;20033;-60
2022/08/25 12:05:23;;;;;;;1.55;1.08;;;28.40;38.70;;;;;;5021752;28;20045;-63
2022/08/25 12:08:37;;;;;;;1.30;1.20;;;28.40;38.50;;;;;;5029983;28;20092;-63
2022/08/25 12:10:55;;;;;;;1.30;1.20;;;28.30;38.10;;;;;;5021373;28;20380;-60
2022/08/25 12:13:47;;;;;;;1.30;1.00;;;28.30;38.10;;;;;;5028786;28;20819;-60
2022/08/25 12:17:02;;;;;;;1.15;1.05;;;28.40;38.10;;;;;;5028477;28;20048;-60
2022/08/25 12:19:48;;;;;;;2.22;1.27;;;28.40;37.60;;;;;;4987951;28;20050;-62
2022/08/25 12:22:39;;;;;;;4.22;1.20;;;28.30;37.70;;;;;;5024525;28;20038;-57
2022/08/25 12:25:34;;;;;;;1.33;1.00;;;28.30;37.40;;;;;;5017971;28;20357;-61
2022/08/25 12:28:51;;;;;;;1.25;0.90;;;28.30;36.90;;;;;;5019265;28;20045;-58
2022/08/25 12:31:40;;;;;;;1.95;1.08;;;28.30;36.70;;;;;;5002618;28;20041;-60
2022/08/25 12:34:16;;;;;;;1.52;1.05;;;28.30;37.00;;;;;;5014805;28;20065;-62
2022/08/25 12:37:00;;;;;;;1.48;1.00;;;28.30;37.60;;;;;;5019437;28;20049;-58
2022/08/25 12:39:35;;;;;;;1.67;1.27;;;28.30;38.30;;;;;;5024186;28;20044;-62
2022/08/25 12:42:06;;;;;;;1.52;1.08;;;28.30;38.90;;;;;;5029953;28;20022;-62
2022/08/25 12:44:40;;;;;;;2.90;1.10;;;28.40;39.50;;;;;;5014852;28;20526;-65
2022/08/25 12:47:26;;;;;;;;;;;28.40;39.90;;;;;;5026173;28;20037;-63
2022/08/25 12:50:13;;;;;;;1.15;0.95;;;28.40;40.20;;;;;;5019037;28;19928;-63
2022/08/25 12:52:39;;;;;;;1.42;1.13;;;28.40;40.50;;;;;;5028041;28;20022;-63
2022/08/25 12:55:11;;;;;;;1.17;1.00;;;28.40;40.60;;;;;;5021463;28;20107;-59
2022/08/25 12:57:46;;;;;;;1.25;1.10;;;28.40;40.70;;;;;;5020936;28;20417;-62
2022/08/25 13:00:25;;;;;;;2.08;1.10;;;28.40;40.80;;;;;;5024377;28;20025;-61
2022/08/25 13:03:02;;;;;;;1.15;1.00;;;28.40;40.90;;;;;;5035231;28;20038;-60
2022/08/25 13:05:40;;;;;;;2.60;1.10;;;28.40;41.00;;;;;;5031445;28;20037;-62
2022/08/25 13:08:36;;;;;;;1.08;0.93;;;28.40;41.10;;;;;;5026213;28;20429;-57
2022/08/25 13:11:09;;;;;;;1.40;1.08;;;28.40;41.10;;;;;;5014999;28;20022;-61
2022/08/25 13:13:35;;;;;;;1.25;1.00;;;28.40;41.20;;;;;;5030472;28;20026;-62
2022/08/25 13:16:08;;;;;;;1.70;1.10;;;28.40;41.10;;;;;;5021489;28;20044;-62
2022/08/25 13:18:37;;;;;;;3.08;1.25;;;28.40;41.00;;;;;;5027753;28;20034;-58
2022/08/25 13:21:20;;;;;;;1.60;1.00;;;28.50;41.10;;;;;;5020966;28;20044;-58
2022/08/25 13:23:52;;;;;;;1.38;0.90;;;28.50;41.10;;;;;;5023907;28;20036;-62
2022/08/25 13:26:40;;;;;;;2.17;1.10;;;28.50;41.20;;;;;;5031880;28;20448;-61